Aviation Digital Data Service (ADDS)

Output produced by METARs form (1409 UTC 16 August 2022)
found at http://aviationweather.gov/metar/data/
 
METAR text: KPWT 161406Z AUTO 00000KT 3/4SM BR OVC002 14/14 A3010 RMK AO2 VIS 1/4V2
Conditions at: KPWT (BREMERTON NTNL , WA, US) observed 1406 UTC 16 August 2022
Temperature: 14.0°C (57°F)
Dewpoint: 14.0°C (57°F) [RH = 100%]
Pressure (altimeter): 30.10 inches Hg (1019.4 mb)
Winds: calm
Visibility: 0.75 miles (1.21 km)
Ceiling: 200 feet AGL
Clouds: overcast cloud deck at 200 feet AGL
Weather: BR  (mist)

METAR text: KPWT 161356Z AUTO 00000KT 1/4SM FG OVC002 14/14 A3010 RMK AO2 SLP194 T01440144
Conditions at: KPWT (BREMERTON NTNL , WA, US) observed 1356 UTC 16 August 2022
Temperature: 14.4°C (58°F)
Dewpoint: 14.4°C (58°F) [RH = 100%]
Pressure (altimeter): 30.10 inches Hg (1019.4 mb)
[Sea-level pressure: 1019.4 mb]
Winds: calm
Visibility: 0.25 miles (0.40 km)
Ceiling: 200 feet AGL
Clouds: overcast cloud deck at 200 feet AGL
Weather: FG  (fog)

METAR text: KPWT 161342Z AUTO 00000KT 1/4SM FG OVC002 14/14 A3010 RMK AO2
Conditions at: KPWT (BREMERTON NTNL , WA, US) observed 1342 UTC 16 August 2022
Temperature: 14.0°C (57°F)
Dewpoint: 14.0°C (57°F) [RH = 100%]
Pressure (altimeter): 30.10 inches Hg (1019.4 mb)
Winds: calm
Visibility: 0.25 miles (0.40 km)
Ceiling: 200 feet AGL
Clouds: overcast cloud deck at 200 feet AGL
Weather: FG  (fog)

METAR text: KPWT 161331Z AUTO 00000KT 3/4SM BR OVC002 14/14 A3010 RMK AO2
Conditions at: KPWT (BREMERTON NTNL , WA, US) observed 1331 UTC 16 August 2022
Temperature: 14.0°C (57°F)
Dewpoint: 14.0°C (57°F) [RH = 100%]
Pressure (altimeter): 30.10 inches Hg (1019.4 mb)
Winds: calm
Visibility: 0.75 miles (1.21 km)
Ceiling: 200 feet AGL
Clouds: overcast cloud deck at 200 feet AGL
Weather: BR  (mist)

Forecast for: KPWT (BREMERTON NTNL , WA, US)
Text: KPWT 161121Z 1612/1712 00000KT 2SM BR OVC002
Forecast period: 1200 to 1400 UTC 16 August 2022
Forecast type: FROM: standard forecast or significant change
Winds: calm
Visibility: 2.00 miles (3.22 km)
Ceiling: 200 feet AGL
Clouds: overcast cloud deck at 200 feet AGL
Weather: BR  (mist)
Text: TEMPO 1612/1614 1/4SM FG
Forecast period: 1200 to 1400 UTC 16 August 2022
Forecast type: TEMPORARY: The following changes expected for less than half the time period
Visibility: 0.25 miles (0.40 km)
Ceiling: unknown
Clouds: missing
Weather: FG  (fog)
Text: FM161400 VRB03KT 6SM BR BKN002
Forecast period: 1400 to 1800 UTC 16 August 2022
Forecast type: FROM: standard forecast or significant change
Winds: variable direction winds at 3 MPH (3 knots; 1.5 m/s)
Visibility: 6 miles (10 km)
Ceiling: 200 feet AGL
Clouds: broken clouds at 200 feet AGL
Weather: BR  (mist)
Text: FM161800 03004KT P6SM SCT007 SCT250
Forecast period: 1800 to 2100 UTC 16 August 2022
Forecast type: FROM: standard forecast or significant change
Winds: from the NNE (30 degrees) at 5 MPH (4 knots; 2.1 m/s)
Visibility: 6 or more miles (10+ km)
Ceiling: at least 12,000 feet AGL
Clouds: scattered clouds at 700 feet AGL
scattered clouds at 25000 feet AGL
Weather: no significant weather forecast for this period
Text: FM162100 04007KT P6SM FEW250
Forecast period: 2100 UTC 16 August 2022 to 1200 UTC 17 August 2022
Forecast type: FROM: standard forecast or significant change
Winds: from the NE (40 degrees) at 8 MPH (7 knots; 3.6 m/s)
Visibility: 6 or more miles (10+ km)
Ceiling: at least 12,000 feet AGL
Clouds: few clouds at 25000 feet AGL
Weather: no significant weather forecast for this period